Terminal Aerodrome Forecast
Issued by NWS

Home | Current Version | Previous Version | Text Only | Print | Product List | Glossary On
Versions: 1 2 3 4 5 6 7 8 9 10 11 12 13
000
FTAK31 PAJN 180500
TAFAJN
TAF
PAJN 180535Z 1806/1906 10010KT P6SM -SHRA SCT030 BKN040 OVC100
     FM181200 10010KT P6SM -SHRA BKN015 OVC025
     FM182100 10010KT P6SM VCSH SCT025 BKN050
     FM190200 10006KT P6SM SCT030 SCT050 BKN100=

USA.gov is the U.S. government's official web portal to all federal, state and local government web resources and services.